sensor_id;sensor_type;location;lat;lon;timestamp;pressure;altitude;pressure_sealevel;temperature;humidity
25944;BME280;13742;49.306;8.636;2023-05-23T00:00:51;100280.28;;;19.77;83.41
25944;BME280;13742;49.306;8.636;2023-05-23T00:01:53;100280.59;;;19.74;83.17
25944;BME280;13742;49.306;8.636;2023-05-23T00:02:51;100279.06;;;19.76;83.25
25944;BME280;13742;49.306;8.636;2023-05-23T00:03:52;100276.65;;;19.80;82.54
25944;BME280;13742;49.306;8.636;2023-05-23T00:04:51;100276.97;;;19.78;83.05
25944;BME280;13742;49.306;8.636;2023-05-23T00:05:50;100274.05;;;19.78;83.24
25944;BME280;13742;49.306;8.636;2023-05-23T00:06:52;100274.91;;;19.71;83.36
25944;BME280;13742;49.306;8.636;2023-05-23T00:07:50;100276.81;;;19.69;83.71
25944;BME280;13742;49.306;8.636;2023-05-23T00:08:50;100277.45;;;19.65;83.98
25944;BME280;13742;49.306;8.636;2023-05-23T00:09:50;100278.70;;;19.66;84.00
25944;BME280;13742;49.306;8.636;2023-05-23T00:10:50;100277.84;;;19.64;84.10
25944;BME280;13742;49.306;8.636;2023-05-23T00:11:50;100281.23;;;19.65;84.09
25944;BME280;13742;49.306;8.636;2023-05-23T00:12:51;100284.15;;;19.65;84.09
25944;BME280;13742;49.306;8.636;2023-05-23T00:13:50;100286.09;;;19.70;83.27
25944;BME280;13742;49.306;8.636;2023-05-23T00:14:52;100283.42;;;19.71;82.61
25944;BME280;13742;49.306;8.636;2023-05-23T00:15:51;100289.31;;;19.74;82.72
25944;BME280;13742;49.306;8.636;2023-05-23T00:16:50;100289.89;;;19.76;82.79
25944;BME280;13742;49.306;8.636;2023-05-23T00:17:50;100289.59;;;19.77;82.45
25944;BME280;13742;49.306;8.636;2023-05-23T00:18:50;100291.81;;;19.78;82.47
25944;BME280;13742;49.306;8.636;2023-05-23T00:19:51;100293.10;;;19.79;82.60
25944;BME280;13742;49.306;8.636;2023-05-23T00:20:50;100292.13;;;19.80;82.51
25944;BME280;13742;49.306;8.636;2023-05-23T00:21:52;100291.92;;;19.79;82.41
25944;BME280;13742;49.306;8.636;2023-05-23T00:22:51;100293.42;;;19.73;82.96
25944;BME280;13742;49.306;8.636;2023-05-23T00:23:52;100293.34;;;19.58;83.92
25944;BME280;13742;49.306;8.636;2023-05-23T00:24:51;100291.14;;;19.42;84.78
25944;BME280;13742;49.306;8.636;2023-05-23T00:25:51;100293.55;;;19.46;84.94
25944;BME280;13742;49.306;8.636;2023-05-23T00:26:50;100291.85;;;19.39;85.50
25944;BME280;13742;49.306;8.636;2023-05-23T00:27:50;100291.92;;;19.36;85.38
25944;BME280;13742;49.306;8.636;2023-05-23T00:28:50;100292.41;;;19.35;85.54
25944;BME280;13742;49.306;8.636;2023-05-23T00:29:50;100288.60;;;19.32;85.69
25944;BME280;13742;49.306;8.636;2023-05-23T00:30:50;100293.25;;;19.31;85.82
25944;BME280;13742;49.306;8.636;2023-05-23T00:31:50;100294.05;;;19.38;85.27
25944;BME280;13742;49.306;8.636;2023-05-23T00:32:53;100294.33;;;19.39;85.03
25944;BME280;13742;49.306;8.636;2023-05-23T00:33:50;100291.67;;;19.38;85.10
25944;BME280;13742;49.306;8.636;2023-05-23T00:34:53;100293.51;;;19.41;84.92
25944;BME280;13742;49.306;8.636;2023-05-23T00:35:50;100289.31;;;19.37;84.87
25944;BME280;13742;49.306;8.636;2023-05-23T00:36:50;100289.84;;;19.35;85.12
25944;BME280;13742;49.306;8.636;2023-05-23T00:37:51;100291.23;;;19.35;85.09
25944;BME280;13742;49.306;8.636;2023-05-23T00:38:52;100291.25;;;19.36;85.15
25944;BME280;13742;49.306;8.636;2023-05-23T00:39:51;100289.30;;;19.39;84.84
25944;BME280;13742;49.306;8.636;2023-05-23T00:40:51;100288.20;;;19.40;83.95
25944;BME280;13742;49.306;8.636;2023-05-23T00:41:51;100290.08;;;19.44;84.23
25944;BME280;13742;49.306;8.636;2023-05-23T00:42:50;100292.33;;;19.45;84.12
25944;BME280;13742;49.306;8.636;2023-05-23T00:43:51;100290.66;;;19.46;84.15
25944;BME280;13742;49.306;8.636;2023-05-23T00:44:50;100293.63;;;19.48;84.14
25944;BME280;13742;49.306;8.636;2023-05-23T00:45:50;100290.11;;;19.40;84.48
25944;BME280;13742;49.306;8.636;2023-05-23T00:46:51;100293.94;;;19.33;84.57
25944;BME280;13742;49.306;8.636;2023-05-23T00:47:51;100299.13;;;19.33;84.87
25944;BME280;13742;49.306;8.636;2023-05-23T00:48:54;100294.80;;;19.37;83.83
25944;BME280;13742;49.306;8.636;2023-05-23T00:49:50;100295.52;;;19.37;83.36
25944;BME280;13742;49.306;8.636;2023-05-23T00:50:51;100295.83;;;19.35;84.15
25944;BME280;13742;49.306;8.636;2023-05-23T00:51:50;100294.80;;;19.28;84.74
25944;BME280;13742;49.306;8.636;2023-05-23T00:52:50;100292.77;;;19.30;84.78
25944;BME280;13742;49.306;8.636;2023-05-23T00:53:50;100293.88;;;19.26;84.97
25944;BME280;13742;49.306;8.636;2023-05-23T00:54:50;100293.39;;;19.28;84.79
25944;BME280;13742;49.306;8.636;2023-05-23T00:55:50;100290.63;;;19.30;84.48
25944;BME280;13742;49.306;8.636;2023-05-23T00:56:50;100292.89;;;19.29;84.27
25944;BME280;13742;49.306;8.636;2023-05-23T00:57:51;100293.39;;;19.24;84.77
25944;BME280;13742;49.306;8.636;2023-05-23T00:58:50;100290.36;;;19.26;84.65
25944;BME280;13742;49.306;8.636;2023-05-23T00:59:50;100294.23;;;19.24;84.64
25944;BME280;13742;49.306;8.636;2023-05-23T01:00:53;100293.29;;;19.24;84.72
25944;BME280;13742;49.306;8.636;2023-05-23T01:01:52;100297.22;;;19.26;84.24
25944;BME280;13742;49.306;8.636;2023-05-23T01:02:51;100298.89;;;19.26;84.52
25944;BME280;13742;49.306;8.636;2023-05-23T01:03:50;100294.71;;;19.26;84.45
25944;BME280;13742;49.306;8.636;2023-05-23T01:04:54;100295.77;;;19.25;84.18
25944;BME280;13742;49.306;8.636;2023-05-23T01:05:50;100297.16;;;19.26;83.85
25944;BME280;13742;49.306;8.636;2023-05-23T01:06:53;100295.81;;;19.22;84.44
25944;BME280;13742;49.306;8.636;2023-05-23T01:07:51;100296.53;;;19.23;84.27
25944;BME280;13742;49.306;8.636;2023-05-23T01:08:50;100293.83;;;19.25;83.94
25944;BME280;13742;49.306;8.636;2023-05-23T01:09:50;100294.56;;;19.24;84.03
25944;BME280;13742;49.306;8.636;2023-05-23T01:10:50;100299.69;;;19.25;84.11
25944;BME280;13742;49.306;8.636;2023-05-23T01:13:53;100296.42;;;19.23;84.10
25944;BME280;13742;49.306;8.636;2023-05-23T01:14:55;100298.60;;;19.23;83.88
25944;BME280;13742;49.306;8.636;2023-05-23T01:15:55;100296.42;;;19.23;83.71
25944;BME280;13742;49.306;8.636;2023-05-23T01:16:54;100295.02;;;19.23;83.70
25944;BME280;13742;49.306;8.636;2023-05-23T01:17:51;100297.77;;;19.23;84.09
25944;BME280;13742;49.306;8.636;2023-05-23T01:19:17;100299.10;;;19.23;83.83
25944;BME280;13742;49.306;8.636;2023-05-23T01:19:54;100298.53;;;19.23;83.70
25944;BME280;13742;49.306;8.636;2023-05-23T01:21:52;100300.05;;;19.23;83.68
25944;BME280;13742;49.306;8.636;2023-05-23T01:24:54;100300.66;;;19.18;83.49
25944;BME280;13742;49.306;8.636;2023-05-23T01:26:06;100297.61;;;19.18;84.07
25944;BME280;13742;49.306;8.636;2023-05-23T01:27:15;100298.05;;;19.14;84.05
25944;BME280;13742;49.306;8.636;2023-05-23T01:27:52;100301.16;;;19.15;84.46
25944;BME280;13742;49.306;8.636;2023-05-23T01:28:52;100305.74;;;19.14;84.11
25944;BME280;13742;49.306;8.636;2023-05-23T01:29:53;100302.95;;;19.12;84.56
25944;BME280;13742;49.306;8.636;2023-05-23T01:30:51;100307.13;;;19.08;84.63
25944;BME280;13742;49.306;8.636;2023-05-23T01:31:54;100306.91;;;19.06;84.76
25944;BME280;13742;49.306;8.636;2023-05-23T01:32:52;100310.82;;;19.06;84.82
25944;BME280;13742;49.306;8.636;2023-05-23T01:33:52;100308.81;;;19.06;84.71
25944;BME280;13742;49.306;8.636;2023-05-23T01:34:51;100310.63;;;19.07;84.14
25944;BME280;13742;49.306;8.636;2023-05-23T01:35:50;100306.50;;;19.03;85.03
25944;BME280;13742;49.306;8.636;2023-05-23T01:36:53;100310.73;;;19.04;84.75
25944;BME280;13742;49.306;8.636;2023-05-23T01:37:51;100309.64;;;18.96;85.17
25944;BME280;13742;49.306;8.636;2023-05-23T01:38:50;100308.72;;;18.90;85.62
25944;BME280;13742;49.306;8.636;2023-05-23T01:39:50;100308.30;;;18.90;85.97
25944;BME280;13742;49.306;8.636;2023-05-23T01:40:50;100308.30;;;18.92;85.29
25944;BME280;13742;49.306;8.636;2023-05-23T01:41:50;100307.58;;;18.91;85.36
25944;BME280;13742;49.306;8.636;2023-05-23T01:42:51;100311.47;;;18.92;85.36
25944;BME280;13742;49.306;8.636;2023-05-23T01:43:50;100313.59;;;18.87;85.78
25944;BME280;13742;49.306;8.636;2023-05-23T01:44:50;100316.28;;;18.85;85.91
25944;BME280;13742;49.306;8.636;2023-05-23T01:45:51;100317.02;;;18.85;85.96
25944;BME280;13742;49.306;8.636;2023-05-23T01:46:50;100318.45;;;18.82;86.05
25944;BME280;13742;49.306;8.636;2023-05-23T01:47:50;100316.94;;;18.86;85.61
25944;BME280;13742;49.306;8.636;2023-05-23T01:48:50;100320.05;;;18.87;85.46
25944;BME280;13742;49.306;8.636;2023-05-23T01:49:50;100324.20;;;18.87;85.44
25944;BME280;13742;49.306;8.636;2023-05-23T01:50:50;100318.34;;;18.87;85.08
25944;BME280;13742;49.306;8.636;2023-05-23T01:51:50;100319.80;;;18.85;84.57
25944;BME280;13742;49.306;8.636;2023-05-23T01:52:51;100323.21;;;18.85;84.85
25944;BME280;13742;49.306;8.636;2023-05-23T01:53:50;100323.58;;;18.85;84.40
25944;BME280;13742;49.306;8.636;2023-05-23T01:54:50;100324.59;;;18.85;84.23
25944;BME280;13742;49.306;8.636;2023-05-23T01:55:51;100325.92;;;18.85;84.00
25944;BME280;13742;49.306;8.636;2023-05-23T01:56:50;100324.04;;;18.84;84.04
25944;BME280;13742;49.306;8.636;2023-05-23T01:57:51;100326.45;;;18.78;85.00
25944;BME280;13742;49.306;8.636;2023-05-23T01:58:50;100322.95;;;18.71;85.67
25944;BME280;13742;49.306;8.636;2023-05-23T01:59:50;100323.96;;;18.72;86.14
25944;BME280;13742;49.306;8.636;2023-05-23T02:00:50;100324.66;;;18.68;86.23
25944;BME280;13742;49.306;8.636;2023-05-23T02:01:50;100325.77;;;18.67;86.46
25944;BME280;13742;49.306;8.636;2023-05-23T02:02:50;100326.78;;;18.67;86.20
25944;BME280;13742;49.306;8.636;2023-05-23T02:03:50;100330.53;;;18.67;85.97
25944;BME280;13742;49.306;8.636;2023-05-23T02:04:50;100332.34;;;18.68;85.60
25944;BME280;13742;49.306;8.636;2023-05-23T02:05:50;100335.77;;;18.68;85.68
25944;BME280;13742;49.306;8.636;2023-05-23T02:06:50;100334.22;;;18.65;86.13
25944;BME280;13742;49.306;8.636;2023-05-23T02:07:50;100339.16;;;18.67;85.62
25944;BME280;13742;49.306;8.636;2023-05-23T02:08:50;100342.28;;;18.68;85.62
25944;BME280;13742;49.306;8.636;2023-05-23T02:09:50;100338.03;;;18.68;85.36
25944;BME280;13742;49.306;8.636;2023-05-23T02:10:50;100339.37;;;18.68;84.89
25944;BME280;13742;49.306;8.636;2023-05-23T02:11:50;100337.97;;;18.69;84.67
25944;BME280;13742;49.306;8.636;2023-05-23T02:12:50;100338.04;;;18.68;84.37
25944;BME280;13742;49.306;8.636;2023-05-23T02:13:50;100336.91;;;18.69;84.20
25944;BME280;13742;49.306;8.636;2023-05-23T02:14:52;100337.29;;;18.70;84.26
25944;BME280;13742;49.306;8.636;2023-05-23T02:15:50;100339.63;;;18.70;84.13
25944;BME280;13742;49.306;8.636;2023-05-23T02:16:52;100340.91;;;18.71;84.11
25944;BME280;13742;49.306;8.636;2023-05-23T02:17:50;100340.17;;;18.71;83.91
25944;BME280;13742;49.306;8.636;2023-05-23T02:18:51;100342.96;;;18.72;84.31
25944;BME280;13742;49.306;8.636;2023-05-23T02:19:50;100340.47;;;18.70;83.95
25944;BME280;13742;49.306;8.636;2023-05-23T02:20:50;100342.92;;;18.71;83.47
25944;BME280;13742;49.306;8.636;2023-05-23T02:21:50;100344.53;;;18.72;83.25
25944;BME280;13742;49.306;8.636;2023-05-23T02:22:50;100342.30;;;18.72;83.50
25944;BME280;13742;49.306;8.636;2023-05-23T02:23:50;100340.34;;;18.71;83.39
25944;BME280;13742;49.306;8.636;2023-05-23T02:24:50;100342.02;;;18.71;83.18
25944;BME280;13742;49.306;8.636;2023-05-23T02:25:50;100342.46;;;18.72;83.08
25944;BME280;13742;49.306;8.636;2023-05-23T02:26:51;100341.06;;;18.72;82.75
25944;BME280;13742;49.306;8.636;2023-05-23T02:27:50;100340.16;;;18.73;82.76
25944;BME280;13742;49.306;8.636;2023-05-23T02:28:50;100345.06;;;18.74;82.86
25944;BME280;13742;49.306;8.636;2023-05-23T02:29:50;100345.39;;;18.74;83.39
25944;BME280;13742;49.306;8.636;2023-05-23T02:30:50;100347.59;;;18.73;83.16
25944;BME280;13742;49.306;8.636;2023-05-23T02:31:50;100344.70;;;18.71;84.04
25944;BME280;13742;49.306;8.636;2023-05-23T02:32:50;100348.15;;;18.72;84.09
25944;BME280;13742;49.306;8.636;2023-05-23T02:33:50;100344.70;;;18.71;84.33
25944;BME280;13742;49.306;8.636;2023-05-23T02:34:51;100347.88;;;18.71;83.86
25944;BME280;13742;49.306;8.636;2023-05-23T02:35:50;100348.24;;;18.68;84.06
25944;BME280;13742;49.306;8.636;2023-05-23T02:36:50;100348.25;;;18.67;84.87
25944;BME280;13742;49.306;8.636;2023-05-23T02:37:50;100354.06;;;18.66;84.88
25944;BME280;13742;49.306;8.636;2023-05-23T02:38:50;100355.53;;;18.56;85.63
25944;BME280;13742;49.306;8.636;2023-05-23T02:39:50;100349.86;;;18.57;85.41
25944;BME280;13742;49.306;8.636;2023-05-23T02:40:52;100352.17;;;18.59;85.67
25944;BME280;13742;49.306;8.636;2023-05-23T02:41:50;100352.84;;;18.59;85.39
25944;BME280;13742;49.306;8.636;2023-05-23T02:42:50;100348.12;;;18.58;84.71
25944;BME280;13742;49.306;8.636;2023-05-23T02:43:50;100352.68;;;18.57;84.93
25944;BME280;13742;49.306;8.636;2023-05-23T02:44:50;100351.58;;;18.55;84.62
25944;BME280;13742;49.306;8.636;2023-05-23T02:45:50;100348.74;;;18.55;84.50
25944;BME280;13742;49.306;8.636;2023-05-23T02:46:50;100349.92;;;18.56;84.30
25944;BME280;13742;49.306;8.636;2023-05-23T02:47:50;100349.85;;;18.56;84.92
25944;BME280;13742;49.306;8.636;2023-05-23T02:48:50;100349.11;;;18.52;85.89
25944;BME280;13742;49.306;8.636;2023-05-23T02:49:50;100350.42;;;18.48;86.33
25944;BME280;13742;49.306;8.636;2023-05-23T02:50:51;100353.59;;;18.48;86.08
25944;BME280;13742;49.306;8.636;2023-05-23T02:51:50;100355.39;;;18.47;86.24
25944;BME280;13742;49.306;8.636;2023-05-23T02:52:50;100356.51;;;18.48;86.21
25944;BME280;13742;49.306;8.636;2023-05-23T02:53:50;100354.01;;;18.46;86.08
25944;BME280;13742;49.306;8.636;2023-05-23T02:54:50;100353.45;;;18.45;86.31
25944;BME280;13742;49.306;8.636;2023-05-23T02:55:50;100358.14;;;18.40;86.76
25944;BME280;13742;49.306;8.636;2023-05-23T02:56:52;100356.39;;;18.42;86.60
25944;BME280;13742;49.306;8.636;2023-05-23T02:57:51;100357.62;;;18.41;86.40
25944;BME280;13742;49.306;8.636;2023-05-23T02:58:52;100356.34;;;18.41;86.01
25944;BME280;13742;49.306;8.636;2023-05-23T02:59:50;100355.52;;;18.37;86.51
25944;BME280;13742;49.306;8.636;2023-05-23T03:00:50;100354.09;;;18.36;86.72
25944;BME280;13742;49.306;8.636;2023-05-23T03:01:50;100354.41;;;18.37;86.05
25944;BME280;13742;49.306;8.636;2023-05-23T03:02:55;100357.17;;;18.33;86.76
25944;BME280;13742;49.306;8.636;2023-05-23T03:03:50;100355.96;;;18.33;86.29
25944;BME280;13742;49.306;8.636;2023-05-23T03:04:50;100358.20;;;18.32;85.77
25944;BME280;13742;49.306;8.636;2023-05-23T03:05:51;100355.57;;;18.31;86.03
25944;BME280;13742;49.306;8.636;2023-05-23T03:06:53;100357.92;;;18.32;85.85
25944;BME280;13742;49.306;8.636;2023-05-23T03:07:53;100355.80;;;18.31;86.30
25944;BME280;13742;49.306;8.636;2023-05-23T03:08:50;100360.04;;;18.30;86.36
25944;BME280;13742;49.306;8.636;2023-05-23T03:09:51;100355.54;;;18.29;85.77
25944;BME280;13742;49.306;8.636;2023-05-23T03:10:50;100357.71;;;18.29;86.48
25944;BME280;13742;49.306;8.636;2023-05-23T03:11:50;100356.71;;;18.29;86.43
25944;BME280;13742;49.306;8.636;2023-05-23T03:12:50;100357.34;;;18.26;87.21
25944;BME280;13742;49.306;8.636;2023-05-23T03:13:50;100357.41;;;18.24;87.57
25944;BME280;13742;49.306;8.636;2023-05-23T03:14:50;100355.64;;;18.24;87.63
25944;BME280;13742;49.306;8.636;2023-05-23T03:15:50;100354.22;;;18.12;88.47
25944;BME280;13742;49.306;8.636;2023-05-23T03:16:50;100356.73;;;18.14;88.60
25944;BME280;13742;49.306;8.636;2023-05-23T03:17:50;100360.25;;;18.12;88.60
25944;BME280;13742;49.306;8.636;2023-05-23T03:18:50;100362.32;;;18.01;89.03
25944;BME280;13742;49.306;8.636;2023-05-23T03:19:50;100363.17;;;18.00;89.22
25944;BME280;13742;49.306;8.636;2023-05-23T03:20:50;100368.94;;;18.04;89.03
25944;BME280;13742;49.306;8.636;2023-05-23T03:21:51;100370.10;;;18.03;88.99
25944;BME280;13742;49.306;8.636;2023-05-23T03:22:50;100371.64;;;17.97;89.48
25944;BME280;13742;49.306;8.636;2023-05-23T03:23:50;100367.89;;;17.94;89.97
25944;BME280;13742;49.306;8.636;2023-05-23T03:24:50;100372.34;;;17.91;89.91
25944;BME280;13742;49.306;8.636;2023-05-23T03:25:50;100372.94;;;17.86;90.47
25944;BME280;13742;49.306;8.636;2023-05-23T03:26:50;100372.00;;;17.84;90.56
25944;BME280;13742;49.306;8.636;2023-05-23T03:27:50;100373.08;;;17.80;90.41
25944;BME280;13742;49.306;8.636;2023-05-23T03:28:51;100372.61;;;17.85;90.46
25944;BME280;13742;49.306;8.636;2023-05-23T03:29:50;100371.98;;;17.89;90.48
25944;BME280;13742;49.306;8.636;2023-05-23T03:30:50;100372.27;;;17.84;90.63
25944;BME280;13742;49.306;8.636;2023-05-23T03:31:50;100370.64;;;17.80;91.10
25944;BME280;13742;49.306;8.636;2023-05-23T03:32:50;100372.64;;;17.78;91.42
25944;BME280;13742;49.306;8.636;2023-05-23T03:33:50;100372.27;;;17.64;92.21
25944;BME280;13742;49.306;8.636;2023-05-23T03:34:50;100373.73;;;17.62;92.98
25944;BME280;13742;49.306;8.636;2023-05-23T03:35:51;100374.88;;;17.66;92.91
25944;BME280;13742;49.306;8.636;2023-05-23T03:36:51;100372.69;;;17.71;92.84
25944;BME280;13742;49.306;8.636;2023-05-23T03:37:50;100376.13;;;17.73;92.49
25944;BME280;13742;49.306;8.636;2023-05-23T03:38:51;100372.68;;;17.70;92.35
25944;BME280;13742;49.306;8.636;2023-05-23T03:39:50;100371.98;;;17.65;93.53
25944;BME280;13742;49.306;8.636;2023-05-23T03:40:50;100373.53;;;17.69;93.25
25944;BME280;13742;49.306;8.636;2023-05-23T03:41:50;100372.41;;;17.72;93.03
25944;BME280;13742;49.306;8.636;2023-05-23T03:43:50;100373.16;;;17.77;92.42
25944;BME280;13742;49.306;8.636;2023-05-23T03:44:50;100378.55;;;17.78;92.86
25944;BME280;13742;49.306;8.636;2023-05-23T03:45:50;100379.00;;;17.75;93.46
25944;BME280;13742;49.306;8.636;2023-05-23T03:46:51;100377.63;;;17.73;93.43
25944;BME280;13742;49.306;8.636;2023-05-23T03:47:50;100381.29;;;17.76;93.13
25944;BME280;13742;49.306;8.636;2023-05-23T03:48:50;100380.56;;;17.76;93.57
25944;BME280;13742;49.306;8.636;2023-05-23T03:49:50;100379.70;;;17.79;92.57
25944;BME280;13742;49.306;8.636;2023-05-23T03:50:50;100377.88;;;17.81;92.13
25944;BME280;13742;49.306;8.636;2023-05-23T03:51:50;100382.59;;;17.84;92.00
25944;BME280;13742;49.306;8.636;2023-05-23T03:52:50;100378.63;;;17.85;91.88
25944;BME280;13742;49.306;8.636;2023-05-23T03:53:50;100378.84;;;17.86;92.00
25944;BME280;13742;49.306;8.636;2023-05-23T03:54:50;100382.74;;;17.87;91.30
25944;BME280;13742;49.306;8.636;2023-05-23T03:55:52;100383.55;;;17.90;90.55
25944;BME280;13742;49.306;8.636;2023-05-23T03:56:50;100387.78;;;17.93;91.47
25944;BME280;13742;49.306;8.636;2023-05-23T03:57:53;100386.48;;;17.95;91.20
25944;BME280;13742;49.306;8.636;2023-05-23T03:58:50;100389.25;;;17.97;90.70
25944;BME280;13742;49.306;8.636;2023-05-23T03:59:50;100389.91;;;17.98;90.13
25944;BME280;13742;49.306;8.636;2023-05-23T04:00:52;100392.30;;;18.01;89.78
25944;BME280;13742;49.306;8.636;2023-05-23T04:01:50;100388.11;;;18.03;89.51
25944;BME280;13742;49.306;8.636;2023-05-23T04:02:50;100389.20;;;18.06;90.40
25944;BME280;13742;49.306;8.636;2023-05-23T04:03:51;100391.20;;;18.08;89.46
25944;BME280;13742;49.306;8.636;2023-05-23T04:04:53;100393.16;;;18.12;90.74
25944;BME280;13742;49.306;8.636;2023-05-23T04:05:50;100394.33;;;18.14;89.89
25944;BME280;13742;49.306;8.636;2023-05-23T04:06:50;100396.32;;;18.15;90.34
25944;BME280;13742;49.306;8.636;2023-05-23T04:07:51;100397.63;;;18.13;90.28
25944;BME280;13742;49.306;8.636;2023-05-23T04:08:50;100400.83;;;18.10;90.46
25944;BME280;13742;49.306;8.636;2023-05-23T04:09:50;100397.47;;;18.11;90.09
25944;BME280;13742;49.306;8.636;2023-05-23T04:10:50;100397.30;;;18.13;89.73
25944;BME280;13742;49.306;8.636;2023-05-23T04:11:50;100398.63;;;18.13;89.97
25944;BME280;13742;49.306;8.636;2023-05-23T04:12:50;100397.11;;;18.16;89.63
25944;BME280;13742;49.306;8.636;2023-05-23T04:13:51;100398.74;;;18.12;90.38
25944;BME280;13742;49.306;8.636;2023-05-23T04:14:51;100396.10;;;18.16;89.93
25944;BME280;13742;49.306;8.636;2023-05-23T04:15:51;100393.88;;;18.15;90.41
25944;BME280;13742;49.306;8.636;2023-05-23T04:16:50;100395.95;;;18.13;90.08
25944;BME280;13742;49.306;8.636;2023-05-23T04:17:50;100400.00;;;18.15;90.30
25944;BME280;13742;49.306;8.636;2023-05-23T04:18:50;100397.98;;;18.15;90.27
25944;BME280;13742;49.306;8.636;2023-05-23T04:19:50;100399.59;;;18.12;90.13
25944;BME280;13742;49.306;8.636;2023-05-23T04:20:50;100403.48;;;18.01;90.57
25944;BME280;13742;49.306;8.636;2023-05-23T04:21:50;100402.31;;;18.01;90.49
25944;BME280;13742;49.306;8.636;2023-05-23T04:22:50;100401.20;;;18.02;90.01
25944;BME280;13742;49.306;8.636;2023-05-23T04:23:50;100405.31;;;17.94;90.94
25944;BME280;13742;49.306;8.636;2023-05-23T04:24:50;100402.73;;;17.87;91.51
25944;BME280;13742;49.306;8.636;2023-05-23T04:25:51;100401.55;;;17.80;91.75
25944;BME280;13742;49.306;8.636;2023-05-23T04:26:50;100404.00;;;17.89;90.83
25944;BME280;13742;49.306;8.636;2023-05-23T04:27:51;100403.06;;;17.89;91.02
25944;BME280;13742;49.306;8.636;2023-05-23T04:28:53;100403.77;;;17.81;91.09
25944;BME280;13742;49.306;8.636;2023-05-23T04:29:51;100403.83;;;17.79;91.12
25944;BME280;13742;49.306;8.636;2023-05-23T04:30:50;100403.22;;;17.67;90.53
25944;BME280;13742;49.306;8.636;2023-05-23T04:31:50;100405.39;;;17.67;90.44
25944;BME280;13742;49.306;8.636;2023-05-23T04:32:51;100404.14;;;17.67;90.63
25944;BME280;13742;49.306;8.636;2023-05-23T04:33:51;100403.89;;;17.62;90.55
25944;BME280;13742;49.306;8.636;2023-05-23T04:34:51;100406.02;;;17.61;89.80
25944;BME280;13742;49.306;8.636;2023-05-23T04:35:50;100405.71;;;17.66;89.63
25944;BME280;13742;49.306;8.636;2023-05-23T04:36:52;100409.62;;;17.64;89.36
25944;BME280;13742;49.306;8.636;2023-05-23T04:37:55;100410.85;;;17.64;89.60
25944;BME280;13742;49.306;8.636;2023-05-23T04:38:50;100409.56;;;17.63;89.08
25944;BME280;13742;49.306;8.636;2023-05-23T04:39:51;100408.52;;;17.63;88.88
25944;BME280;13742;49.306;8.636;2023-05-23T04:40:52;100412.69;;;17.59;88.80
25944;BME280;13742;49.306;8.636;2023-05-23T04:41:50;100408.06;;;17.60;88.59
25944;BME280;13742;49.306;8.636;2023-05-23T04:42:50;100413.91;;;17.60;88.66
25944;BME280;13742;49.306;8.636;2023-05-23T04:43:53;100409.66;;;17.54;88.24
25944;BME280;13742;49.306;8.636;2023-05-23T04:44:52;100412.44;;;17.52;88.31
25944;BME280;13742;49.306;8.636;2023-05-23T04:45:53;100414.77;;;17.59;88.42
25944;BME280;13742;49.306;8.636;2023-05-23T04:46:50;100410.95;;;17.64;87.70
25944;BME280;13742;49.306;8.636;2023-05-23T04:47:53;100412.59;;;17.60;87.79
25944;BME280;13742;49.306;8.636;2023-05-23T04:48:51;100416.75;;;17.63;87.77
25944;BME280;13742;49.306;8.636;2023-05-23T04:49:53;100416.86;;;17.66;87.77
25944;BME280;13742;49.306;8.636;2023-05-23T04:50:51;100414.84;;;17.69;87.46
25944;BME280;13742;49.306;8.636;2023-05-23T04:51:50;100420.00;;;17.70;87.38
25944;BME280;13742;49.306;8.636;2023-05-23T04:52:50;100419.39;;;17.69;87.29
25944;BME280;13742;49.306;8.636;2023-05-23T04:53:51;100418.30;;;17.70;87.35
25944;BME280;13742;49.306;8.636;2023-05-23T04:54:52;100421.56;;;17.68;87.28
25944;BME280;13742;49.306;8.636;2023-05-23T04:55:50;100420.72;;;17.71;86.77
25944;BME280;13742;49.306;8.636;2023-05-23T04:56:50;100420.62;;;17.73;86.87
25944;BME280;13742;49.306;8.636;2023-05-23T04:57:50;100419.99;;;17.73;86.67
25944;BME280;13742;49.306;8.636;2023-05-23T04:58:50;100418.78;;;17.70;86.85
25944;BME280;13742;49.306;8.636;2023-05-23T04:59:50;100422.23;;;17.72;86.77
25944;BME280;13742;49.306;8.636;2023-05-23T05:00:50;100425.34;;;17.74;86.74
25944;BME280;13742;49.306;8.636;2023-05-23T05:01:50;100425.45;;;17.72;87.07
25944;BME280;13742;49.306;8.636;2023-05-23T05:02:50;100421.73;;;17.71;87.00
25944;BME280;13742;49.306;8.636;2023-05-23T05:03:50;100425.22;;;17.72;87.13
25944;BME280;13742;49.306;8.636;2023-05-23T05:04:50;100424.63;;;17.73;86.81
25944;BME280;13742;49.306;8.636;2023-05-23T05:05:50;100427.39;;;17.72;86.88
25944;BME280;13742;49.306;8.636;2023-05-23T05:06:51;100425.67;;;17.74;86.72
25944;BME280;13742;49.306;8.636;2023-05-23T05:07:50;100428.73;;;17.75;86.79
25944;BME280;13742;49.306;8.636;2023-05-23T05:08:50;100429.05;;;17.79;86.96
25944;BME280;13742;49.306;8.636;2023-05-23T05:09:50;100432.10;;;17.80;86.57
25944;BME280;13742;49.306;8.636;2023-05-23T05:10:55;100430.55;;;17.81;86.42
25944;BME280;13742;49.306;8.636;2023-05-23T05:11:50;100437.80;;;17.79;86.05
25944;BME280;13742;49.306;8.636;2023-05-23T05:12:50;100433.66;;;17.79;85.20
25944;BME280;13742;49.306;8.636;2023-05-23T05:13:50;100434.67;;;17.80;85.35
25944;BME280;13742;49.306;8.636;2023-05-23T05:14:50;100436.11;;;17.78;85.04
25944;BME280;13742;49.306;8.636;2023-05-23T05:15:51;100436.67;;;17.79;85.25
25944;BME280;13742;49.306;8.636;2023-05-23T05:16:50;100441.47;;;17.75;85.04
25944;BME280;13742;49.306;8.636;2023-05-23T05:17:50;100438.30;;;17.79;84.53
25944;BME280;13742;49.306;8.636;2023-05-23T05:18:50;100445.88;;;17.74;82.92
25944;BME280;13742;49.306;8.636;2023-05-23T05:19:50;100442.70;;;17.74;82.75